createdAt,value
2023-01-13T00:01:18.321Z,100689.56
2023-01-13T00:04:20.775Z,100690.78
2023-01-13T00:07:28.985Z,100699.06
2023-01-13T00:10:31.446Z,100693.84
2023-01-13T00:13:35.474Z,100694.16
2023-01-13T00:16:43.161Z,100680.91
2023-01-13T00:19:46.601Z,100666.94
2023-01-13T00:22:49.217Z,100697.25
2023-01-13T00:25:51.727Z,100682.47
2023-01-13T00:28:59.262Z,100671.84
2023-01-13T00:32:01.892Z,100667.09
2023-01-13T00:35:04.797Z,100674.75
2023-01-13T00:38:07.264Z,100674.09
2023-01-13T00:41:18.414Z,100663.69
2023-01-13T00:44:21.215Z,100656.63
2023-01-13T00:47:26.338Z,100673.00
2023-01-13T00:50:30.230Z,100671.03
2023-01-13T00:53:40.684Z,100664.16
2023-01-13T00:56:43.221Z,100683.28
2023-01-13T00:59:52.601Z,100663.63
2023-01-13T01:02:55.266Z,100679.44
2023-01-13T01:06:28.300Z,100665.19
2023-01-13T01:09:33.577Z,100666.56
2023-01-13T01:12:37.581Z,100641.63
2023-01-13T01:15:45.258Z,100653.44
2023-01-13T01:19:02.991Z,100653.78
2023-01-13T01:22:05.628Z,100631.28
2023-01-13T01:25:08.534Z,100637.84
2023-01-13T01:28:11.228Z,100619.47
2023-01-13T01:31:26.814Z,100628.19
2023-01-13T01:34:31.383Z,100621.47
2023-01-13T01:37:33.879Z,100612.06
2023-01-13T01:40:36.433Z,100608.84
2023-01-13T01:44:08.221Z,100595.78
2023-01-13T01:47:15.287Z,100619.31
2023-01-13T01:50:23.813Z,100594.69
2023-01-13T01:53:28.416Z,100616.69
2023-01-13T01:56:37.715Z,100593.25
2023-01-13T01:59:40.633Z,100591.84
2023-01-13T02:02:46.483Z,100603.50
2023-01-13T02:05:49.188Z,100597.94
2023-01-13T02:08:53.082Z,100600.56
2023-01-13T02:12:22.266Z,100584.66
2023-01-13T02:15:30.882Z,100573.00
2023-01-13T02:18:48.321Z,100591.91
2023-01-13T02:22:11.334Z,100591.44
2023-01-13T02:25:31.702Z,100582.47
2023-01-13T02:29:34.905Z,100585.75
2023-01-13T02:32:43.930Z,100589.88
2023-01-13T02:36:05.767Z,100585.94
2023-01-13T02:39:36.359Z,100580.50
2023-01-13T02:43:09.478Z,100581.81
2023-01-13T02:46:20.402Z,100571.97
2023-01-13T02:49:37.595Z,100564.44
2023-01-13T02:52:52.367Z,100559.38
2023-01-13T02:55:58.731Z,100554.78
2023-01-13T02:59:01.922Z,100547.56
2023-01-13T03:02:05.450Z,100540.03
2023-01-13T03:05:08.419Z,100522.00
2023-01-13T03:08:47.776Z,100531.84
2023-01-13T03:12:02.915Z,100535.13
2023-01-13T03:15:37.081Z,100521.50
2023-01-13T03:19:06.281Z,100531.38
2023-01-13T03:22:33.991Z,100521.69
2023-01-13T03:26:03.991Z,100539.56
2023-01-13T03:29:13.464Z,100534.00
2023-01-13T03:32:30.135Z,100533.97
2023-01-13T03:35:40.603Z,100521.66
2023-01-13T03:38:51.625Z,100535.31
2023-01-13T03:42:05.820Z,100525.13
2023-01-13T03:45:18.375Z,100529.06
2023-01-13T03:48:22.993Z,100531.03
2023-01-13T03:51:36.943Z,100530.69
2023-01-13T03:54:55.307Z,100486.88
2023-01-13T03:58:14.414Z,100528.06
2023-01-13T04:01:47.235Z,100524.75
2023-01-13T04:04:58.349Z,100522.13
2023-01-13T04:08:22.367Z,100523.28
2023-01-13T04:11:39.872Z,100518.19
2023-01-13T04:14:45.550Z,100526.41
2023-01-13T04:17:51.364Z,100521.31
2023-01-13T04:21:05.924Z,100517.06
2023-01-13T04:24:14.624Z,100512.31
2023-01-13T04:27:19.876Z,100504.91
2023-01-13T04:30:22.491Z,100514.38
2023-01-13T04:33:25.073Z,100493.19
2023-01-13T04:36:27.817Z,100496.31
2023-01-13T04:39:30.375Z,100530.09
2023-01-13T04:42:32.944Z,100527.03
2023-01-13T04:45:43.233Z,100531.59
2023-01-13T04:48:48.600Z,100530.25
2023-01-13T04:51:51.164Z,100534.50
2023-01-13T04:54:53.752Z,100529.91
2023-01-13T04:58:16.591Z,100528.28
2023-01-13T05:01:19.359Z,100532.84
2023-01-13T05:04:24.843Z,100540.03
2023-01-13T05:07:30.025Z,100535.63
2023-01-13T05:10:32.770Z,100521.13
2023-01-13T05:13:53.825Z,100537.88
2023-01-13T05:17:05.410Z,100535.06
2023-01-13T05:20:11.086Z,100543.09
2023-01-13T05:23:32.288Z,100512.88
2023-01-13T05:26:34.811Z,100544.22
2023-01-13T05:29:37.339Z,100548.22
2023-01-13T05:32:39.909Z,100554.16
2023-01-13T05:35:46.764Z,100550.72
2023-01-13T05:38:52.235Z,100529.56
2023-01-13T05:42:15.971Z,100562.38
2023-01-13T05:45:21.545Z,100542.56
2023-01-13T05:48:29.838Z,100560.25
2023-01-13T05:51:35.302Z,100563.97
2023-01-13T05:54:37.926Z,100566.97
2023-01-13T05:57:41.650Z,100526.81
2023-01-13T06:00:44.725Z,100554.69
2023-01-13T06:03:49.635Z,100527.19
2023-01-13T06:06:52.211Z,100552.00
2023-01-13T06:09:54.800Z,100557.13
2023-01-13T06:12:57.731Z,100554.72
2023-01-13T06:16:09.166Z,100556.91
2023-01-13T06:19:13.338Z,100557.66
2023-01-13T06:22:18.224Z,100545.94
2023-01-13T06:25:50.744Z,100560.44
2023-01-13T06:28:56.480Z,100563.84
2023-01-13T06:32:00.192Z,100535.63
2023-01-13T06:35:08.449Z,100559.44
2023-01-13T06:38:13.022Z,100552.03
2023-01-13T06:41:16.233Z,100537.72
2023-01-13T06:44:20.034Z,100562.50
2023-01-13T06:47:23.908Z,100556.81
2023-01-13T06:50:28.462Z,100551.06
2023-01-13T06:53:31.820Z,100541.66
2023-01-13T06:56:34.851Z,100562.28
2023-01-13T06:59:37.475Z,100424.34
2023-01-13T07:02:40.286Z,100558.84
2023-01-13T07:05:44.384Z,100503.00
2023-01-13T07:08:50.315Z,100568.75
2023-01-13T07:11:56.271Z,100556.31
2023-01-13T07:15:17.474Z,100568.47
2023-01-13T07:18:20.002Z,100452.56
2023-01-13T07:21:22.676Z,100469.59
2023-01-13T07:24:26.517Z,100562.69
2023-01-13T07:27:37.701Z,100497.88
2023-01-13T07:30:40.300Z,100543.31
2023-01-13T07:33:43.122Z,100531.69
2023-01-13T07:36:46.011Z,100499.47
2023-01-13T07:39:50.363Z,100541.75
2023-01-13T07:43:14.699Z,100559.22
2023-01-13T07:46:20.224Z,100526.06
2023-01-13T07:49:22.771Z,100531.72
2023-01-13T07:52:28.319Z,100564.28
2023-01-13T07:55:30.953Z,100525.09
2023-01-13T07:58:35.908Z,100521.88
2023-01-13T08:01:38.868Z,100555.56
2023-01-13T08:04:47.208Z,100548.03
2023-01-13T08:08:02.711Z,100550.34
2023-01-13T08:11:08.560Z,100549.22
2023-01-13T08:14:11.093Z,100557.63
2023-01-13T08:17:14.064Z,100553.34
2023-01-13T08:20:19.806Z,100561.22
2023-01-13T08:23:23.367Z,100566.66
2023-01-13T08:26:26.120Z,100574.66
2023-01-13T08:29:28.784Z,100551.38
2023-01-13T08:32:34.875Z,100572.19
2023-01-13T08:35:41.278Z,100573.78
2023-01-13T09:07:47.664Z,100611.75
2023-01-13T09:10:53.709Z,100610.94
2023-01-13T09:13:57.666Z,100606.50
2023-01-13T09:17:01.171Z,100606.81
2023-01-13T09:20:08.277Z,100610.88
2023-01-13T09:23:15.888Z,100597.03
2023-01-13T09:26:23.213Z,100616.16
2023-01-13T09:29:37.170Z,100595.53
2023-01-13T09:32:42.648Z,100606.09
2023-01-13T09:35:50.170Z,100591.00
2023-01-13T09:38:58.046Z,100587.84
2023-01-13T09:43:01.511Z,100578.13
2023-01-13T09:46:48.030Z,100571.28
2023-01-13T09:49:52.613Z,100543.06
2023-01-13T09:52:56.224Z,100544.84
2023-01-13T09:56:01.942Z,100532.28
2023-01-13T09:59:05.694Z,100544.91
2023-01-13T10:02:41.600Z,100550.63
2023-01-13T10:05:52.854Z,100554.34
2023-01-13T10:08:58.200Z,100564.91
2023-01-13T10:12:21.348Z,100573.44
2023-01-13T10:15:26.863Z,100568.78
2023-01-13T10:18:38.662Z,100570.63
2023-01-13T10:21:46.020Z,100557.16
2023-01-13T10:25:10.274Z,100568.47
2023-01-13T10:28:18.473Z,100571.91
2023-01-13T10:31:28.168Z,100577.44
2023-01-13T10:34:49.703Z,100569.03
2023-01-13T10:37:58.662Z,100552.97
2023-01-13T10:41:05.844Z,100560.44
2023-01-13T10:44:18.357Z,100555.31
2023-01-13T10:47:30.652Z,100555.78
2023-01-13T10:50:37.819Z,100550.84
2023-01-13T10:54:01.815Z,100557.72
2023-01-13T10:57:24.180Z,100542.59
2023-01-13T11:00:32.033Z,100521.03
2023-01-13T11:03:42.735Z,100519.16
2023-01-13T11:06:49.579Z,100516.56
2023-01-13T11:10:09.384Z,100518.03
2023-01-13T11:13:20.168Z,100497.88
2023-01-13T11:16:26.456Z,100453.66
2023-01-13T11:19:32.832Z,100503.69
2023-01-13T11:22:46.939Z,100495.69
2023-01-13T11:26:03.225Z,100497.88
2023-01-13T11:29:22.080Z,100503.47
2023-01-13T11:32:29.229Z,100501.81
2023-01-13T11:35:39.035Z,100502.22
2023-01-13T11:38:53.098Z,100469.09
2023-01-13T11:42:23.328Z,100491.31
2023-01-13T11:45:52.585Z,100495.25
2023-01-13T11:48:59.407Z,100450.94
2023-01-13T11:52:33.694Z,100434.91
2023-01-13T11:55:51.371Z,100401.25
2023-01-13T11:58:59.243Z,100435.16
2023-01-13T12:02:06.913Z,100430.38
2023-01-13T12:05:41.416Z,100423.28
2023-01-13T12:08:54.256Z,100422.72
2023-01-13T12:12:33.364Z,100410.09
2023-01-13T12:15:59.702Z,100404.44
2023-01-13T12:19:08.665Z,100411.84
2023-01-13T12:22:21.951Z,100402.47
2023-01-13T12:25:41.400Z,100387.81
2023-01-13T12:28:54.560Z,100397.59
2023-01-13T12:32:04.145Z,100385.06
2023-01-13T12:35:23.601Z,100386.16
2023-01-13T12:38:46.447Z,100393.38
2023-01-13T12:42:28.071Z,100392.00
2023-01-13T12:45:34.138Z,100383.97
2023-01-13T12:48:52.389Z,100398.91
2023-01-13T12:51:58.529Z,100398.91
2023-01-13T12:55:05.125Z,100395.22
2023-01-13T12:58:09.135Z,100389.97
2023-01-13T13:01:17.558Z,100393.44
2023-01-13T13:04:48.690Z,100366.91
2023-01-13T13:08:17.301Z,100396.91
2023-01-13T13:12:00.517Z,100402.41
2023-01-13T13:15:07.569Z,100393.59
2023-01-13T13:18:18.742Z,100407.22
2023-01-13T13:21:24.513Z,100392.28
2023-01-13T13:24:28.586Z,100388.91
2023-01-13T13:27:33.458Z,100422.91
2023-01-13T13:30:40.447Z,100418.00
2023-01-13T13:33:55.965Z,100412.75
2023-01-13T13:37:12.543Z,100418.88
2023-01-13T13:40:36.485Z,100419.59
2023-01-13T13:44:01.774Z,100406.22
2023-01-13T13:47:07.570Z,100420.06
2023-01-13T13:50:22.275Z,100424.28
2023-01-13T13:53:31.173Z,100429.38
2023-01-13T13:56:41.968Z,100436.47
2023-01-13T13:59:51.357Z,100430.97
2023-01-13T14:03:05.874Z,100406.03
2023-01-13T14:06:22.823Z,100413.88
2023-01-13T14:09:30.471Z,100389.41
2023-01-13T14:12:39.015Z,100420.34
2023-01-13T14:15:44.556Z,100404.44
2023-01-13T14:18:52.173Z,100419.09
2023-01-13T14:22:02.203Z,100391.94
2023-01-13T14:25:31.465Z,100421.41
2023-01-13T14:28:43.445Z,100421.00
2023-01-13T14:31:56.466Z,100402.41
2023-01-13T14:35:07.270Z,100425.84
2023-01-13T14:38:20.284Z,100435.19
2023-01-13T14:41:32.599Z,100436.19
2023-01-13T14:44:48.696Z,100429.09
2023-01-13T14:48:03.441Z,100446.94
2023-01-13T14:51:12.541Z,100429.41
2023-01-13T14:55:02.039Z,100446.69
2023-01-13T14:58:30.345Z,100440.91
2023-01-13T15:01:57.631Z,100443.66
2023-01-13T15:05:31.671Z,100447.09
2023-01-13T15:09:00.101Z,100422.41
2023-01-13T15:12:56.553Z,100451.78
2023-01-13T15:16:38.401Z,100452.22
2023-01-13T15:20:10.237Z,100449.97
2023-01-13T15:23:39.047Z,100453.78
2023-01-13T15:27:27.831Z,100440.97
2023-01-13T15:30:53.043Z,100427.19
2023-01-13T15:34:30.386Z,100396.03
2023-01-13T15:38:24.284Z,100435.28
2023-01-13T15:42:15.875Z,100428.47
2023-01-13T15:46:09.375Z,100414.84
2023-01-13T15:49:49.597Z,100433.56
2023-01-13T15:53:39.890Z,100425.94
2023-01-13T15:57:25.949Z,100410.41
2023-01-13T16:01:09.122Z,100435.84
2023-01-13T16:04:42.000Z,100425.56
2023-01-13T16:08:26.948Z,100429.22
2023-01-13T16:12:11.453Z,100424.38
2023-01-13T16:16:27.491Z,100422.22
2023-01-13T16:20:19.842Z,100445.72
2023-01-13T16:24:10.920Z,100421.94
2023-01-13T16:28:40.550Z,100451.91
2023-01-13T16:36:42.292Z,100438.28
2023-01-13T16:40:48.175Z,100444.66
2023-01-13T16:49:20.800Z,100452.28
2023-01-13T16:57:25.253Z,100451.34
2023-01-13T17:02:11.531Z,100440.97
2023-01-13T17:06:23.531Z,100426.44
2023-01-13T17:10:26.669Z,100432.19
2023-01-13T17:14:31.746Z,100449.38
2023-01-13T17:22:21.745Z,100426.44
2023-01-13T17:34:26.189Z,100470.28
2023-01-13T17:38:26.739Z,100465.28
2023-01-13T17:43:08.509Z,100462.00
2023-01-13T18:13:19.530Z,100512.94
2023-01-13T18:22:03.107Z,100519.91
2023-01-13T18:30:09.208Z,100528.03
2023-01-13T18:38:49.149Z,100533.81
2023-01-13T18:42:48.563Z,100538.09
2023-01-13T18:58:34.050Z,100551.84
2023-01-13T19:07:21.488Z,100555.53
2023-01-13T19:16:12.265Z,100550.28
2023-01-13T19:24:20.735Z,100581.78
2023-01-13T19:28:11.452Z,100588.84
2023-01-13T19:32:23.479Z,100590.84
2023-01-13T19:36:25.885Z,100572.16
2023-01-13T19:41:07.692Z,100583.59
2023-01-13T19:58:26.892Z,100612.56
2023-01-13T20:28:41.338Z,100660.66
2023-01-13T20:50:12.694Z,100591.16
2023-01-13T20:58:43.328Z,100509.59
2023-01-13T21:07:17.427Z,100553.72
2023-01-13T21:11:34.437Z,100557.50
2023-01-13T21:19:38.079Z,100545.84
2023-01-13T21:31:38.647Z,100612.84
2023-01-13T21:48:27.365Z,100688.00
2023-01-13T21:57:12.367Z,100740.47
2023-01-13T22:01:34.893Z,100690.13
2023-01-13T22:22:23.624Z,100668.59
2023-01-13T22:26:28.152Z,100662.81
2023-01-13T22:31:05.087Z,100652.84
2023-01-13T22:35:08.033Z,100660.44
2023-01-13T22:43:46.451Z,100655.38
2023-01-13T22:52:24.327Z,100654.97
2023-01-13T22:56:37.661Z,100678.66
2023-01-13T23:00:44.146Z,100667.63
2023-01-13T23:04:31.324Z,100670.75
2023-01-13T23:12:50.086Z,100674.91
2023-01-13T23:21:13.315Z,100673.28
2023-01-13T23:25:13.268Z,100662.31
2023-01-13T23:38:16.886Z,100664.13
2023-01-13T23:42:25.640Z,100671.19
2023-01-13T23:46:34.613Z,100666.59
2023-01-13T23:55:07.849Z,100665.59
